createdAt,value
2023-01-04T00:00:55.936Z,57.64
2023-01-04T00:01:55.946Z,57.79
2023-01-04T00:02:55.966Z,55.16
2023-01-04T00:03:55.919Z,54.44
2023-01-04T00:04:55.848Z,57.32
2023-01-04T00:05:55.844Z,55.54
2023-01-04T00:06:55.831Z,52.70
2023-01-04T00:07:55.823Z,55.96
2023-01-04T00:08:55.825Z,53.26
2023-01-04T00:09:55.818Z,51.99
2023-01-04T00:10:55.797Z,56.08
2023-01-04T00:11:55.805Z,59.16
2023-01-04T00:12:55.794Z,51.81
2023-01-04T00:13:56.789Z,51.35
2023-01-04T00:14:55.784Z,51.65
2023-01-04T00:15:55.840Z,53.06
2023-01-04T00:16:55.789Z,58.46
2023-01-04T00:17:55.756Z,52.14
2023-01-04T00:18:55.760Z,54.70
2023-01-04T00:19:55.774Z,54.42
2023-01-04T00:20:55.741Z,49.08
2023-01-04T00:21:55.759Z,47.56
2023-01-04T00:22:55.722Z,50.38
2023-01-04T00:23:55.729Z,53.45
2023-01-04T00:24:55.723Z,53.34
2023-01-04T00:25:55.701Z,56.26
2023-01-04T00:26:55.820Z,54.92
2023-01-04T00:27:55.701Z,53.33
2023-01-04T00:28:55.690Z,57.59
2023-01-04T00:29:55.683Z,50.84
2023-01-04T00:30:55.763Z,55.83
2023-01-04T00:31:55.675Z,52.57
2023-01-04T00:32:55.679Z,53.62
2023-01-04T00:33:55.655Z,58.19
2023-01-04T00:34:55.660Z,55.85
2023-01-04T00:35:55.684Z,54.83
2023-01-04T00:36:55.646Z,53.30
2023-01-04T00:37:55.636Z,51.21
2023-01-04T00:38:55.644Z,55.09
2023-01-04T00:39:55.628Z,52.77
2023-01-04T00:40:55.620Z,51.39
2023-01-04T00:42:00.713Z,50.31
2023-01-04T00:42:57.594Z,57.39
2023-01-04T00:43:55.599Z,55.63
2023-01-04T00:44:55.595Z,54.59
2023-01-04T00:45:55.609Z,51.88
2023-01-04T00:46:55.578Z,52.67
2023-01-04T00:47:55.589Z,56.32
2023-01-04T00:49:00.129Z,55.68
2023-01-04T00:49:57.575Z,51.86
2023-01-04T00:50:55.572Z,53.14
2023-01-04T00:51:55.563Z,56.03
2023-01-04T00:52:55.548Z,51.52
2023-01-04T00:53:55.541Z,52.65
2023-01-04T00:54:55.537Z,51.16
2023-01-04T00:55:55.549Z,47.58
2023-01-04T00:56:55.530Z,47.83
2023-01-04T00:57:55.502Z,48.88
2023-01-04T00:58:55.512Z,51.25
2023-01-04T00:59:55.669Z,52.28
2023-01-04T01:00:55.513Z,49.54
2023-01-04T01:01:55.651Z,53.19
2023-01-04T01:02:55.643Z,49.80
2023-01-04T01:03:55.575Z,52.13
2023-01-04T01:04:55.493Z,53.80
2023-01-04T01:05:55.463Z,49.09
2023-01-04T01:06:55.446Z,50.31
2023-01-04T01:07:55.450Z,52.13
2023-01-04T01:08:55.469Z,52.21
2023-01-04T01:09:55.437Z,54.71
2023-01-04T01:10:55.423Z,53.41
2023-01-04T01:11:55.433Z,48.12
2023-01-04T01:12:55.423Z,51.46
2023-01-04T01:13:55.392Z,54.78
2023-01-04T01:15:00.333Z,51.65
2023-01-04T01:15:57.435Z,47.68
2023-01-04T01:16:58.447Z,51.79
2023-01-04T01:17:56.407Z,53.15
2023-01-04T01:18:55.356Z,57.32
2023-01-04T01:19:55.373Z,54.14
2023-01-04T01:20:55.355Z,50.42
2023-01-04T01:21:55.354Z,53.70
2023-01-04T01:22:55.341Z,48.18
2023-01-04T01:23:55.339Z,52.53
2023-01-04T01:24:55.340Z,49.20
2023-01-04T01:25:55.325Z,49.99
2023-01-04T01:26:55.320Z,54.19
2023-01-04T01:27:55.316Z,49.71
2023-01-04T01:28:55.304Z,48.63
2023-01-04T01:29:55.301Z,49.50
2023-01-04T01:30:55.327Z,53.73
2023-01-04T01:31:55.390Z,52.81
2023-01-04T01:32:55.287Z,54.32
2023-01-04T01:33:55.281Z,55.13
2023-01-04T01:34:55.297Z,55.24
2023-01-04T01:35:55.263Z,49.26
2023-01-04T01:36:55.252Z,49.21
2023-01-04T01:37:55.263Z,53.31
2023-01-04T01:38:55.249Z,54.14
2023-01-04T01:39:55.249Z,49.02
2023-01-04T01:40:55.242Z,51.80
2023-01-04T01:41:55.238Z,52.15
2023-01-04T01:42:55.218Z,54.75
2023-01-04T01:43:55.220Z,48.48
2023-01-04T01:44:55.215Z,48.14
2023-01-04T01:45:55.211Z,52.44
2023-01-04T01:46:55.348Z,55.04
2023-01-04T01:47:55.185Z,54.11
2023-01-04T01:48:55.186Z,53.81
2023-01-04T01:49:55.182Z,53.34
2023-01-04T01:50:55.175Z,55.22
2023-01-04T01:51:55.174Z,47.83
2023-01-04T01:52:55.151Z,50.08
2023-01-04T01:53:55.139Z,54.85
2023-01-04T01:54:56.140Z,47.70
2023-01-04T01:55:55.144Z,48.92
2023-01-04T01:56:55.146Z,51.12
2023-01-04T01:57:55.118Z,52.60
2023-01-04T01:58:55.101Z,52.89
2023-01-04T01:59:55.124Z,58.16
2023-01-04T02:00:55.147Z,53.12
2023-01-04T02:01:55.147Z,53.42
2023-01-04T02:02:55.244Z,52.18
2023-01-04T02:03:55.183Z,55.36
2023-01-04T02:04:55.083Z,54.35
2023-01-04T02:05:55.083Z,49.52
2023-01-04T02:06:55.121Z,48.97
2023-01-04T02:07:55.060Z,53.37
2023-01-04T02:08:55.063Z,57.98
2023-01-04T02:09:55.045Z,57.16
2023-01-04T02:10:55.048Z,57.39
2023-01-04T02:11:55.060Z,55.89
2023-01-04T02:12:55.062Z,51.36
2023-01-04T02:13:55.025Z,54.13
2023-01-04T02:14:55.036Z,52.11
2023-01-04T02:15:55.076Z,56.55
2023-01-04T02:16:55.019Z,52.90
2023-01-04T02:17:55.015Z,50.22
2023-01-04T02:18:54.994Z,51.56
2023-01-04T02:19:54.985Z,55.15
2023-01-04T02:20:54.991Z,50.28
2023-01-04T02:21:54.972Z,52.74
2023-01-04T02:22:54.958Z,56.08
2023-01-04T02:23:54.955Z,53.93
2023-01-04T02:24:54.945Z,53.74
2023-01-04T02:25:54.936Z,51.86
2023-01-04T02:26:54.952Z,54.44
2023-01-04T02:27:55.605Z,51.83
2023-01-04T02:28:54.924Z,54.76
2023-01-04T02:29:54.920Z,51.65
2023-01-04T02:30:54.938Z,53.94
2023-01-04T02:31:55.207Z,53.09
2023-01-04T02:32:54.903Z,49.49
2023-01-04T02:33:54.889Z,48.91
2023-01-04T02:34:58.499Z,52.07
2023-01-04T02:35:55.871Z,54.53
2023-01-04T02:36:54.856Z,56.39
2023-01-04T02:37:54.871Z,52.93
2023-01-04T02:38:54.861Z,52.85
2023-01-04T02:39:54.941Z,50.55
2023-01-04T02:40:54.837Z,50.78
2023-01-04T02:41:54.826Z,52.97
2023-01-04T02:42:54.835Z,50.50
2023-01-04T02:43:54.859Z,52.52
2023-01-04T02:44:54.827Z,54.43
2023-01-04T02:45:54.812Z,52.76
2023-01-04T02:46:54.863Z,50.98
2023-01-04T02:47:54.806Z,54.70
2023-01-04T02:48:54.791Z,56.63
2023-01-04T02:49:57.849Z,54.17
2023-01-04T02:50:56.778Z,55.00
2023-01-04T02:51:54.780Z,53.56
2023-01-04T02:52:54.769Z,53.66
2023-01-04T02:53:54.776Z,54.43
2023-01-04T02:54:54.750Z,50.21
2023-01-04T02:55:55.749Z,53.49
2023-01-04T02:56:58.347Z,50.13
2023-01-04T02:57:55.734Z,55.77
2023-01-04T02:58:54.746Z,53.64
2023-01-04T02:59:54.720Z,52.83
2023-01-04T03:00:54.721Z,55.03
2023-01-04T03:01:54.884Z,57.22
2023-01-04T03:02:54.866Z,50.81
2023-01-04T03:03:54.737Z,52.21
2023-01-04T03:04:54.696Z,49.47
2023-01-04T03:05:54.678Z,56.13
2023-01-04T03:06:54.683Z,55.02
2023-01-04T03:07:54.680Z,53.36
2023-01-04T03:08:54.697Z,53.09
2023-01-04T03:09:54.650Z,52.64
2023-01-04T03:10:54.711Z,55.05
2023-01-04T03:11:54.638Z,56.94
2023-01-04T03:12:54.651Z,54.47
2023-01-04T03:13:54.663Z,53.73
2023-01-04T03:14:54.631Z,49.79
2023-01-04T03:15:54.713Z,51.19
2023-01-04T03:16:54.611Z,53.34
2023-01-04T03:17:54.604Z,55.63
2023-01-04T03:18:54.601Z,55.61
2023-01-04T03:19:54.667Z,54.37
2023-01-04T03:20:54.583Z,54.12
2023-01-04T03:21:54.587Z,51.32
2023-01-04T03:22:54.583Z,55.38
2023-01-04T03:23:54.571Z,57.64
2023-01-04T03:24:54.594Z,57.11
2023-01-04T03:25:54.547Z,56.83
2023-01-04T03:26:54.589Z,55.53
2023-01-04T03:27:54.547Z,53.78
2023-01-04T03:28:54.556Z,57.11
2023-01-04T03:29:54.539Z,60.35
2023-01-04T03:30:54.591Z,60.20
2023-01-04T03:31:54.629Z,54.08
2023-01-04T03:32:54.515Z,58.08
2023-01-04T03:33:55.529Z,56.25
2023-01-04T03:34:54.515Z,52.58
2023-01-04T03:35:54.527Z,56.30
2023-01-04T03:36:54.491Z,55.80
2023-01-04T03:37:54.499Z,55.62
2023-01-04T03:38:54.465Z,54.62
2023-01-04T03:39:54.470Z,52.04
2023-01-04T03:40:54.465Z,57.55
2023-01-04T03:41:54.468Z,56.02
2023-01-04T03:42:54.449Z,52.93
2023-01-04T03:43:54.453Z,54.47
2023-01-04T03:44:54.438Z,58.85
2023-01-04T03:45:54.440Z,57.52
2023-01-04T03:46:54.474Z,56.65
2023-01-04T03:47:54.421Z,54.56
2023-01-04T03:48:54.407Z,57.12
2023-01-04T03:49:54.397Z,59.00
2023-01-04T03:50:54.419Z,55.49
2023-01-04T03:51:54.404Z,56.89
2023-01-04T03:52:54.382Z,58.60
2023-01-04T03:53:54.397Z,57.78
2023-01-04T03:54:54.378Z,56.95
2023-01-04T03:55:54.376Z,56.16
2023-01-04T03:56:54.371Z,56.51
2023-01-04T03:57:54.359Z,55.79
2023-01-04T03:58:54.342Z,58.19
2023-01-04T03:59:54.342Z,57.04
2023-01-04T04:00:54.427Z,58.68
2023-01-04T04:01:54.399Z,57.01
2023-01-04T04:02:54.371Z,58.79
2023-01-04T04:03:54.429Z,57.92
2023-01-04T04:04:54.297Z,57.55
2023-01-04T04:05:54.302Z,60.42
2023-01-04T04:06:54.293Z,57.98
2023-01-04T04:07:54.300Z,57.82
2023-01-04T04:08:54.297Z,57.71
2023-01-04T04:09:54.274Z,57.61
2023-01-04T04:10:54.285Z,59.01
2023-01-04T04:11:54.266Z,60.34
2023-01-04T04:12:54.255Z,58.58
2023-01-04T04:13:54.262Z,61.95
2023-01-04T04:14:54.279Z,59.72
2023-01-04T04:15:54.255Z,61.13
2023-01-04T04:16:54.298Z,60.56
2023-01-04T04:17:54.232Z,60.88
2023-01-04T04:18:54.237Z,58.11
2023-01-04T04:19:54.205Z,58.58
2023-01-04T04:20:54.228Z,62.74
2023-01-04T04:21:54.207Z,61.54
2023-01-04T04:22:54.196Z,60.78
2023-01-04T04:23:54.212Z,60.23
2023-01-04T04:24:54.197Z,58.61
2023-01-04T04:25:54.182Z,62.44
2023-01-04T04:26:54.180Z,62.01
2023-01-04T04:27:54.172Z,60.95
2023-01-04T04:28:54.179Z,59.06
2023-01-04T04:29:54.166Z,59.26
2023-01-04T04:30:54.148Z,61.28
2023-01-04T04:31:54.185Z,62.44
2023-01-04T04:32:54.139Z,62.54
2023-01-04T04:33:54.134Z,62.09
2023-01-04T04:34:54.155Z,60.12
2023-01-04T04:35:54.113Z,62.52
2023-01-04T04:36:54.118Z,62.55
2023-01-04T04:37:54.109Z,61.98
2023-01-04T04:38:54.132Z,62.24
2023-01-04T04:39:54.102Z,61.75
2023-01-04T04:40:54.088Z,60.83
2023-01-04T04:41:54.103Z,59.91
2023-01-04T04:42:54.083Z,62.22
2023-01-04T04:43:54.068Z,63.19
2023-01-04T04:44:54.079Z,62.43
2023-01-04T04:45:54.125Z,62.39
2023-01-04T04:46:54.076Z,63.01
2023-01-04T04:47:54.031Z,63.41
2023-01-04T04:48:54.034Z,61.13
2023-01-04T04:49:54.027Z,63.08
2023-01-04T04:50:54.049Z,62.14
2023-01-04T04:51:54.030Z,63.70
2023-01-04T04:52:56.198Z,63.20
2023-01-04T04:53:55.006Z,63.05
2023-01-04T04:54:53.991Z,60.70
2023-01-04T04:55:54.008Z,62.20
2023-01-04T04:56:53.986Z,61.29
2023-01-04T04:57:53.984Z,62.07
2023-01-04T04:58:53.988Z,63.21
2023-01-04T04:59:53.959Z,62.98
2023-01-04T05:00:54.014Z,62.69
2023-01-04T05:01:54.187Z,62.45
2023-01-04T05:02:54.117Z,59.57
2023-01-04T05:03:53.941Z,60.31
2023-01-04T05:04:53.922Z,62.03
2023-01-04T05:05:53.948Z,61.85
2023-01-04T05:06:53.918Z,61.32
2023-01-04T05:07:53.906Z,62.67
2023-01-04T05:08:53.910Z,60.15
2023-01-04T05:09:53.899Z,62.18
2023-01-04T05:10:53.899Z,61.30
2023-01-04T05:11:53.895Z,60.67
2023-01-04T05:12:57.773Z,60.94
2023-01-04T05:13:54.877Z,63.01
2023-01-04T05:14:53.871Z,61.05
2023-01-04T05:15:53.880Z,61.34
2023-01-04T05:16:53.974Z,59.19
2023-01-04T05:17:53.849Z,62.04
2023-01-04T05:18:53.849Z,63.53
2023-01-04T05:19:53.841Z,63.65
2023-01-04T05:20:53.845Z,61.77
2023-01-04T05:21:53.832Z,64.56
2023-01-04T05:22:53.808Z,63.58
2023-01-04T05:23:53.802Z,61.50
2023-01-04T05:24:53.799Z,61.79
2023-01-04T05:25:53.796Z,63.01
2023-01-04T05:26:53.784Z,63.66
2023-01-04T05:27:53.813Z,63.28
2023-01-04T05:28:54.414Z,63.87
2023-01-04T05:29:54.783Z,64.08
2023-01-04T05:30:53.961Z,64.10
2023-01-04T05:31:53.764Z,64.67
2023-01-04T05:32:53.752Z,62.29
2023-01-04T05:33:53.756Z,64.97
2023-01-04T05:34:53.739Z,65.71
2023-01-04T05:35:53.764Z,63.91
2023-01-04T05:36:53.726Z,63.79
2023-01-04T05:37:53.716Z,63.13
2023-01-04T05:38:53.712Z,63.74
2023-01-04T05:39:53.688Z,64.18
2023-01-04T05:40:53.708Z,63.59
2023-01-04T05:41:53.696Z,63.82
2023-01-04T05:42:53.680Z,63.69
2023-01-04T05:43:53.681Z,63.84
2023-01-04T05:44:53.689Z,65.82
2023-01-04T05:45:53.793Z,63.86
2023-01-04T05:46:53.694Z,65.52
2023-01-04T05:47:53.649Z,64.85
2023-01-04T05:48:53.655Z,64.81
2023-01-04T05:49:53.637Z,63.43
2023-01-04T05:50:53.803Z,65.27
2023-01-04T05:51:53.625Z,65.49
2023-01-04T05:52:53.608Z,64.69
2023-01-04T05:53:53.604Z,63.40
2023-01-04T05:54:53.597Z,63.88
2023-01-04T05:55:53.594Z,63.33
2023-01-04T05:56:53.600Z,63.93
2023-01-04T05:57:53.593Z,63.30
2023-01-04T05:58:53.573Z,63.52
2023-01-04T05:59:53.576Z,63.13
2023-01-04T06:00:53.572Z,63.15
2023-01-04T06:01:53.656Z,63.95
2023-01-04T06:02:53.776Z,64.33
2023-01-04T06:03:53.601Z,64.28
2023-01-04T06:04:58.805Z,62.89
2023-01-04T06:05:55.535Z,62.83
2023-01-04T06:06:53.531Z,60.98
2023-01-04T06:07:53.527Z,61.92
2023-01-04T06:08:53.515Z,60.86
2023-01-04T06:09:53.498Z,62.78
2023-01-04T06:10:53.487Z,64.52
2023-01-04T06:11:53.488Z,64.24
2023-01-04T06:12:53.501Z,63.74
2023-01-04T06:13:53.487Z,62.80
2023-01-04T06:14:53.491Z,62.92
2023-01-04T06:15:53.466Z,65.03
2023-01-04T06:16:53.467Z,62.95
2023-01-04T06:17:53.455Z,62.97
2023-01-04T06:18:53.449Z,64.57
2023-01-04T06:19:53.432Z,62.16
2023-01-04T06:20:53.438Z,62.30
2023-01-04T06:21:53.511Z,63.87
2023-01-04T06:22:53.444Z,62.74
2023-01-04T06:23:53.416Z,63.39
2023-01-04T06:24:53.421Z,62.38
2023-01-04T06:25:53.410Z,60.21
2023-01-04T06:26:53.428Z,62.12
2023-01-04T06:27:53.407Z,63.04
2023-01-04T06:28:53.394Z,63.97
2023-01-04T06:29:54.379Z,64.27
2023-01-04T06:30:53.480Z,61.47
2023-01-04T06:31:53.363Z,62.57
2023-01-04T06:32:53.353Z,63.84
2023-01-04T06:33:53.380Z,62.73
2023-01-04T06:34:53.341Z,62.37
2023-01-04T06:35:53.333Z,63.73
2023-01-04T06:36:53.330Z,64.49
2023-01-04T06:37:53.328Z,62.26
2023-01-04T06:38:53.346Z,64.14
2023-01-04T06:39:53.318Z,63.15
2023-01-04T06:40:53.309Z,62.72
2023-01-04T06:41:53.308Z,64.40
2023-01-04T06:42:53.291Z,63.41
2023-01-04T06:43:53.264Z,63.43
2023-01-04T06:44:53.293Z,62.04
2023-01-04T06:45:53.311Z,63.41
2023-01-04T06:46:53.271Z,65.34
2023-01-04T06:47:53.266Z,64.47
2023-01-04T06:48:53.260Z,61.43
2023-01-04T06:49:53.250Z,62.73
2023-01-04T06:50:53.237Z,62.70
2023-01-04T06:51:53.231Z,62.51
2023-01-04T06:52:53.232Z,63.35
2023-01-04T06:53:53.228Z,63.65
2023-01-04T06:54:53.220Z,62.90
2023-01-04T06:55:53.206Z,61.52
2023-01-04T06:56:53.201Z,61.80
2023-01-04T06:57:59.233Z,62.37
2023-01-04T06:58:55.194Z,61.99
2023-01-04T06:59:53.190Z,62.65
2023-01-04T07:00:53.274Z,61.85
2023-01-04T07:01:53.341Z,64.16
2023-01-04T07:03:14.144Z,65.13
2023-01-04T07:03:54.378Z,64.09
2023-01-04T07:04:53.197Z,62.83
2023-01-04T07:05:53.149Z,61.54
2023-01-04T07:06:53.157Z,62.85
2023-01-04T07:07:53.126Z,60.78
2023-01-04T07:08:53.141Z,60.31
2023-01-04T07:09:53.166Z,62.50
2023-01-04T07:10:53.124Z,63.20
2023-01-04T07:11:53.107Z,61.60
2023-01-04T07:12:53.107Z,61.98
2023-01-04T07:13:53.118Z,63.28
2023-01-04T07:14:53.095Z,62.24
2023-01-04T07:15:53.120Z,62.39
2023-01-04T07:16:53.084Z,63.49
2023-01-04T07:17:53.078Z,62.44
2023-01-04T07:18:53.091Z,63.75
2023-01-04T07:19:53.073Z,65.31
2023-01-04T07:20:53.069Z,63.83
2023-01-04T07:21:53.056Z,62.71
2023-01-04T07:22:53.060Z,62.36
2023-01-04T07:23:53.055Z,61.57
2023-01-04T07:24:54.032Z,63.12
2023-01-04T07:25:53.035Z,62.35
2023-01-04T07:26:53.017Z,61.52
2023-01-04T07:27:53.024Z,62.80
2023-01-04T07:28:53.024Z,62.09
2023-01-04T07:29:53.017Z,62.54
2023-01-04T07:30:53.050Z,63.86
2023-01-04T07:31:53.005Z,62.75
2023-01-04T07:32:52.977Z,62.63
2023-01-04T07:33:52.987Z,61.73
2023-01-04T07:34:52.970Z,61.65
2023-01-04T07:35:52.953Z,60.92
2023-01-04T07:36:52.957Z,61.91
2023-01-04T07:37:58.399Z,62.54
2023-01-04T07:38:54.957Z,60.59
2023-01-04T07:39:52.931Z,61.20
2023-01-04T07:40:55.859Z,61.40
2023-01-04T07:41:52.923Z,64.39
2023-01-04T07:42:52.908Z,64.37
2023-01-04T07:43:52.940Z,63.25
2023-01-04T07:44:52.916Z,62.49
2023-01-04T07:45:52.954Z,63.40
2023-01-04T07:46:52.943Z,63.67
2023-01-04T07:47:52.911Z,63.20
2023-01-04T07:48:52.898Z,62.10
2023-01-04T07:49:52.872Z,63.35
2023-01-04T07:50:52.869Z,64.37
2023-01-04T07:51:52.859Z,63.98
2023-01-04T07:52:52.855Z,62.80
2023-01-04T07:53:52.853Z,64.10
2023-01-04T07:54:52.836Z,63.45
2023-01-04T07:55:52.827Z,61.04
2023-01-04T07:56:52.828Z,62.37
2023-01-04T07:57:52.940Z,60.90
2023-01-04T07:58:52.836Z,62.54
2023-01-04T07:59:52.805Z,63.09
2023-01-04T08:00:52.808Z,63.45
2023-01-04T08:01:53.935Z,62.43
2023-01-04T08:02:52.925Z,61.85
2023-01-04T08:03:52.829Z,60.60
2023-01-04T08:04:52.818Z,62.07
2023-01-04T08:05:52.756Z,60.74
2023-01-04T08:06:52.753Z,62.53
2023-01-04T08:07:52.773Z,63.76
2023-01-04T08:08:52.742Z,62.88
2023-01-04T08:09:52.873Z,62.12
2023-01-04T08:10:52.733Z,62.80
2023-01-04T08:11:52.731Z,61.00
2023-01-04T08:12:52.724Z,62.62
2023-01-04T08:13:52.720Z,61.88
2023-01-04T08:14:52.985Z,61.27
2023-01-04T08:15:52.726Z,61.79
2023-01-04T08:16:52.688Z,61.67
2023-01-04T08:17:52.684Z,62.90
2023-01-04T08:18:52.695Z,64.40
2023-01-04T08:19:52.687Z,62.72
2023-01-04T08:20:58.385Z,62.21
2023-01-04T08:21:53.669Z,60.67
2023-01-04T08:22:52.648Z,63.35
2023-01-04T08:23:52.649Z,61.33
2023-01-04T08:24:52.659Z,63.63
2023-01-04T08:25:52.636Z,63.20
2023-01-04T08:26:52.637Z,63.53
2023-01-04T08:27:52.625Z,62.87
2023-01-04T08:28:52.621Z,64.74
2023-01-04T08:29:52.607Z,62.82
2023-01-04T08:30:52.671Z,62.91
2023-01-04T08:31:52.703Z,64.20
2023-01-04T08:32:52.588Z,62.79
2023-01-04T08:33:52.589Z,62.49
2023-01-04T08:34:52.599Z,62.57
2023-01-04T08:35:52.577Z,62.08
2023-01-04T08:36:52.576Z,64.32
2023-01-04T08:37:52.566Z,64.25
2023-01-04T08:39:01.340Z,61.73
2023-01-04T08:39:54.574Z,63.72
2023-01-04T08:40:59.674Z,61.04
2023-01-04T08:41:59.003Z,62.19
2023-01-04T08:42:54.535Z,63.13
2023-01-04T08:43:52.531Z,61.82
2023-01-04T08:44:58.692Z,63.82
2023-01-04T08:45:53.572Z,61.93
2023-01-04T08:46:52.618Z,63.01
2023-01-04T08:47:52.506Z,62.97
2023-01-04T08:48:52.509Z,63.47
2023-01-04T08:49:52.496Z,62.86
2023-01-04T08:50:52.486Z,61.95
2023-01-04T08:51:52.521Z,63.07
2023-01-04T08:52:52.479Z,62.55
2023-01-04T08:53:52.486Z,61.29
2023-01-04T08:54:52.467Z,59.19
2023-01-04T08:55:53.467Z,62.86
2023-01-04T08:56:52.461Z,62.44
2023-01-04T08:57:52.442Z,61.97
2023-01-04T08:58:52.434Z,63.67
2023-01-04T08:59:52.437Z,63.11
2023-01-04T09:00:52.432Z,62.85
2023-01-04T09:01:52.530Z,62.84
2023-01-04T09:02:52.555Z,61.27
2023-01-04T09:03:52.405Z,63.70
2023-01-04T09:04:52.450Z,63.62
2023-01-04T09:05:52.391Z,63.48
2023-01-04T09:06:52.419Z,62.63
2023-01-04T09:07:52.385Z,60.58
2023-01-04T09:08:52.373Z,61.73
2023-01-04T09:09:52.376Z,63.52
2023-01-04T09:10:52.371Z,62.78
2023-01-04T09:11:52.366Z,61.60
2023-01-04T09:12:52.357Z,62.57
2023-01-04T09:13:52.354Z,63.50
2023-01-04T09:14:52.331Z,62.99
2023-01-04T09:15:52.484Z,62.75
2023-01-04T09:16:52.314Z,64.63
2023-01-04T09:18:29.500Z,63.08
2023-01-04T09:18:54.325Z,63.78
2023-01-04T09:19:52.311Z,62.82
2023-01-04T09:20:52.302Z,61.89
2023-01-04T09:21:52.347Z,61.32
2023-01-04T09:22:52.346Z,62.07
2023-01-04T09:23:52.293Z,62.20
2023-01-04T09:24:52.273Z,63.96
2023-01-04T09:25:52.260Z,64.30
2023-01-04T09:26:52.256Z,63.08
2023-01-04T09:27:52.274Z,62.55
2023-01-04T09:28:52.241Z,61.59
2023-01-04T09:29:52.262Z,62.45
2023-01-04T09:30:52.252Z,63.48
2023-01-04T09:31:52.303Z,64.13
2023-01-04T09:32:52.228Z,61.70
2023-01-04T09:34:54.209Z,61.46
2023-01-04T09:35:52.204Z,61.71
2023-01-04T09:36:52.213Z,61.04
2023-01-04T09:37:52.215Z,62.99
2023-01-04T09:38:52.262Z,59.26
2023-01-04T09:39:52.175Z,61.98
2023-01-04T09:40:52.171Z,62.07
2023-01-04T09:41:52.156Z,62.79
2023-01-04T09:43:20.193Z,64.89
2023-01-04T09:43:53.155Z,62.25
2023-01-04T09:45:22.692Z,62.79
2023-01-04T09:45:54.141Z,63.99
2023-01-04T09:46:52.237Z,62.46
2023-01-04T09:47:52.125Z,63.50
2023-01-04T09:48:52.137Z,62.93
2023-01-04T09:49:52.122Z,60.72
2023-01-04T09:50:52.105Z,61.14
2023-01-04T09:51:52.102Z,61.90
2023-01-04T09:52:52.105Z,60.90
2023-01-04T09:53:52.093Z,63.05
2023-01-04T09:54:52.091Z,62.30
2023-01-04T09:55:52.071Z,62.59
2023-01-04T09:56:52.068Z,62.66
2023-01-04T09:57:52.056Z,62.31
2023-01-04T09:58:52.068Z,62.37
2023-01-04T09:59:52.061Z,62.75
2023-01-04T10:00:52.097Z,62.55
2023-01-04T10:01:52.187Z,61.80
2023-01-04T10:02:52.200Z,62.13
2023-01-04T10:03:52.153Z,63.07
2023-01-04T10:04:52.024Z,63.16
2023-01-04T10:05:52.005Z,62.01
2023-01-04T10:06:52.005Z,63.36
2023-01-04T10:07:52.003Z,62.92
2023-01-04T10:08:51.992Z,61.67
2023-01-04T10:09:52.000Z,63.46
2023-01-04T10:10:51.968Z,63.42
2023-01-04T10:11:52.984Z,63.83
2023-01-04T10:12:57.931Z,63.85
2023-01-04T10:13:52.976Z,64.14
2023-01-04T10:14:51.980Z,63.04
2023-01-04T10:15:51.994Z,61.91
2023-01-04T10:19:36.952Z,62.46
2023-01-04T10:21:30.049Z,62.79
2023-01-04T10:21:54.081Z,63.72
2023-01-04T10:22:52.012Z,64.04
2023-01-04T10:23:51.915Z,64.77
2023-01-04T10:24:52.090Z,61.81
2023-01-04T10:25:51.892Z,63.44
2023-01-04T10:26:51.909Z,62.93
2023-01-04T10:27:51.880Z,61.88
2023-01-04T10:28:51.866Z,60.76
2023-01-04T10:29:51.884Z,63.49
2023-01-04T10:30:51.856Z,63.41
2023-01-04T10:31:51.870Z,62.43
2023-01-04T10:32:51.903Z,61.70
2023-01-04T10:33:51.837Z,65.79
2023-01-04T10:34:51.848Z,63.10
2023-01-04T10:35:51.843Z,63.85
2023-01-04T10:36:51.820Z,64.58
2023-01-04T10:37:51.821Z,63.80
2023-01-04T10:38:51.802Z,61.83
2023-01-04T10:39:51.824Z,64.44
2023-01-04T10:40:51.806Z,63.18
2023-01-04T10:41:51.773Z,64.41
2023-01-04T10:42:51.947Z,63.46
2023-01-04T10:44:12.252Z,63.54
2023-01-04T10:44:52.762Z,63.10
2023-01-04T10:45:51.767Z,63.92
2023-01-04T10:46:51.793Z,63.39
2023-01-04T10:47:51.762Z,63.26
2023-01-04T10:48:51.737Z,64.42
2023-01-04T10:49:51.750Z,63.61
2023-01-04T10:50:51.723Z,63.51
2023-01-04T10:51:51.716Z,63.48
2023-01-04T10:52:51.697Z,64.41
2023-01-04T10:53:51.739Z,64.30
2023-01-04T10:54:51.728Z,64.09
2023-01-04T10:56:25.482Z,63.54
2023-01-04T10:56:52.667Z,62.92
2023-01-04T10:57:52.679Z,63.51
2023-01-04T10:58:51.677Z,63.80
2023-01-04T10:59:51.671Z,62.29
2023-01-04T11:00:51.701Z,64.33
2023-01-04T11:01:51.925Z,64.82
2023-01-04T11:02:51.966Z,65.24
2023-01-04T11:03:51.772Z,64.05
2023-01-04T11:04:51.635Z,63.37
2023-01-04T11:05:51.636Z,62.78
2023-01-04T11:06:51.635Z,62.35
2023-01-04T11:07:51.618Z,64.94
2023-01-04T11:08:51.613Z,61.97
2023-01-04T11:09:51.707Z,62.39
2023-01-04T11:10:51.601Z,64.19
2023-01-04T11:11:51.619Z,63.17
2023-01-04T11:12:51.610Z,64.62
2023-01-04T11:13:51.658Z,62.23
2023-01-04T11:14:51.576Z,62.16
2023-01-04T11:15:51.566Z,64.38
2023-01-04T11:16:51.667Z,63.05
2023-01-04T11:17:51.637Z,63.97
2023-01-04T11:18:51.539Z,63.69
2023-01-04T11:19:51.539Z,64.79
2023-01-04T11:20:51.568Z,63.82
2023-01-04T11:21:51.531Z,63.49
2023-01-04T11:22:51.614Z,63.19
2023-01-04T11:23:51.504Z,62.99
2023-01-04T11:25:32.620Z,63.21
2023-01-04T11:25:56.146Z,62.79
2023-01-04T11:26:52.582Z,62.48
2023-01-04T11:27:51.538Z,61.67
2023-01-04T11:28:52.501Z,61.60
2023-01-04T11:29:51.515Z,63.44
2023-01-04T11:30:51.648Z,63.63
2023-01-04T11:31:51.643Z,62.51
2023-01-04T11:32:51.577Z,62.21
2023-01-04T11:33:51.487Z,61.41
2023-01-04T11:34:51.431Z,61.30
2023-01-04T11:35:51.440Z,61.41
2023-01-04T11:36:51.433Z,61.44
2023-01-04T11:37:51.452Z,63.97
2023-01-04T11:38:51.439Z,62.17
2023-01-04T11:39:51.434Z,62.12
2023-01-04T11:40:51.396Z,62.09
2023-01-04T11:41:51.528Z,61.45
2023-01-04T11:42:51.404Z,63.05
2023-01-04T11:43:51.383Z,62.24
2023-01-04T11:44:51.384Z,63.13
2023-01-04T11:45:51.446Z,62.48
2023-01-04T11:46:51.376Z,63.62
2023-01-04T11:47:51.421Z,62.68
2023-01-04T11:48:51.459Z,63.06
2023-01-04T11:49:51.369Z,62.24
2023-01-04T11:50:51.357Z,61.78
2023-01-04T11:51:51.338Z,63.04
2023-01-04T11:52:51.329Z,62.60
2023-01-04T11:53:51.401Z,60.87
2023-01-04T11:54:51.305Z,64.16
2023-01-04T11:55:51.316Z,62.06
2023-01-04T11:56:51.301Z,61.61
2023-01-04T11:57:51.428Z,61.43
2023-01-04T11:58:51.295Z,62.02
2023-01-04T11:59:51.303Z,62.34
2023-01-04T12:00:51.265Z,63.76
2023-01-04T12:01:51.418Z,63.22
2023-01-04T12:03:01.399Z,63.24
2023-01-04T12:03:53.260Z,64.36
2023-01-04T12:04:51.347Z,62.71
2023-01-04T12:05:51.250Z,62.58
2023-01-04T12:06:51.241Z,60.79
2023-01-04T12:07:51.229Z,62.76
2023-01-04T12:08:51.241Z,63.31
2023-01-04T12:09:51.212Z,62.15
2023-01-04T12:10:51.240Z,62.67
2023-01-04T12:11:51.265Z,62.94
2023-01-04T12:12:51.184Z,63.82
2023-01-04T12:13:51.192Z,62.29
2023-01-04T12:14:51.183Z,64.50
2023-01-04T12:15:51.180Z,63.86
2023-01-04T12:16:51.265Z,63.43
2023-01-04T12:17:51.205Z,64.02
2023-01-04T12:18:51.168Z,63.71
2023-01-04T12:19:51.137Z,62.65
2023-01-04T12:20:51.140Z,63.92
2023-01-04T12:21:51.141Z,62.48
2023-01-04T12:22:51.121Z,63.56
2023-01-04T12:23:51.135Z,62.09
2023-01-04T12:24:56.881Z,63.79
2023-01-04T12:25:53.093Z,63.72
2023-01-04T12:26:51.103Z,64.54
2023-01-04T12:27:51.107Z,64.07
2023-01-04T12:28:51.132Z,63.88
2023-01-04T12:29:51.080Z,62.56
2023-01-04T12:30:51.084Z,63.32
2023-01-04T12:31:51.074Z,63.65
2023-01-04T12:32:51.049Z,61.97
2023-01-04T12:33:51.106Z,62.96
2023-01-04T12:34:51.069Z,63.37
2023-01-04T12:35:51.036Z,62.55
2023-01-04T12:36:51.028Z,60.33
2023-01-04T12:37:51.026Z,63.11
2023-01-04T12:38:51.042Z,64.82
2023-01-04T12:39:51.011Z,64.16
2023-01-04T12:40:50.997Z,65.04
2023-01-04T12:41:51.014Z,63.99
2023-01-04T12:42:51.000Z,62.72
2023-01-04T12:43:50.984Z,62.75
2023-01-04T12:44:51.004Z,63.57
2023-01-04T12:45:51.059Z,61.31
2023-01-04T12:46:51.030Z,63.99
2023-01-04T12:47:50.956Z,64.06
2023-01-04T12:48:50.947Z,62.52
2023-01-04T12:49:51.019Z,64.23
2023-01-04T12:50:58.208Z,62.87
2023-01-04T12:52:21.039Z,63.18
2023-01-04T12:53:52.914Z,63.54
2023-01-04T12:54:50.910Z,64.14
2023-01-04T12:55:50.910Z,64.97
2023-01-04T12:56:50.897Z,64.28
2023-01-04T12:57:50.909Z,62.63